Time;durP1;ratioP1;P1;durP2;ratioP2;P2;SDS_P1;SDS_P2;PMS_P1;PMS_P2;Temp;Humidity;BMP_temperature;BMP_pressure;BME280_temperature;BME280_humidity;BME280_pressure;Samples;Min_cycle;Max_cycle;Signal;HPM_P1;HPM_P2
2024/04/29 00:01:33;;;;;;;4.80;3.47;;;7.60;99.90;;;;;;5451014;26;19995;-75
2024/04/29 00:04:00;;;;;;;1.95;1.70;;;7.60;99.90;;;;;;5452428;26;19995;-75
2024/04/29 00:06:27;;;;;;;3.67;2.08;;;7.60;99.90;;;;;;5421163;26;19999;-75
2024/04/29 00:08:54;;;;;;;4.45;1.08;;;7.60;99.90;;;;;;5450880;26;20010;-75
2024/04/29 00:11:21;;;;;;;3.33;2.25;;;7.60;99.90;;;;;;5450524;26;20332;-75
2024/04/29 00:13:48;;;;;;;3.35;2.88;;;7.60;99.90;;;;;;5452712;26;20009;-75
2024/04/29 00:16:15;;;;;;;2.38;2.17;;;7.60;99.90;;;;;;5452009;26;20013;-75
2024/04/29 00:18:42;;;;;;;3.05;2.50;;;7.70;99.90;;;;;;5452321;26;20484;-75
2024/04/29 00:21:09;;;;;;;3.10;2.05;;;7.70;99.90;;;;;;5450219;26;20010;-75
2024/04/29 00:23:36;;;;;;;3.22;1.92;;;7.70;99.90;;;;;;5452389;26;19998;-75
2024/04/29 00:26:04;;;;;;;2.65;2.45;;;7.70;99.90;;;;;;5450604;26;19999;-75
2024/04/29 00:28:31;;;;;;;1.08;1.00;;;7.80;99.90;;;;;;5452089;26;20048;-75
2024/04/29 00:30:58;;;;;;;3.00;2.63;;;7.80;99.90;;;;;;5450624;26;19999;-75
2024/04/29 00:33:25;;;;;;;2.60;1.98;;;7.80;99.90;;;;;;5451886;26;19998;-75
2024/04/29 00:35:53;;;;;;;6.13;2.13;;;7.80;99.90;;;;;;5452257;26;20033;-75
2024/04/29 00:38:20;;;;;;;2.65;2.17;;;7.90;99.90;;;;;;5451696;26;20448;-75
2024/04/29 00:40:47;;;;;;;3.15;2.40;;;7.80;99.90;;;;;;5452077;26;20006;-75
2024/04/29 00:43:14;;;;;;;2.65;2.45;;;7.80;99.90;;;;;;5451811;26;19995;-75
2024/04/29 00:45:41;;;;;;;2.85;2.33;;;7.70;99.90;;;;;;5420492;26;20014;-75
2024/04/29 00:48:08;;;;;;;2.03;1.60;;;7.70;99.90;;;;;;5451883;26;19995;-75
2024/04/29 00:50:35;;;;;;;2.30;1.80;;;7.60;99.90;;;;;;5451963;26;20031;-75
2024/04/29 00:53:03;;;;;;;2.35;2.13;;;7.50;99.90;;;;;;5449991;26;20010;-75
2024/04/29 00:55:30;;;;;;;2.60;2.40;;;7.50;99.90;;;;;;5449413;26;20455;-75
2024/04/29 00:57:57;;;;;;;2.33;2.13;;;7.40;99.90;;;;;;5451601;26;19999;-75
2024/04/29 01:00:26;;;;;;;2.33;2.22;;;7.40;99.90;;;;;;5449560;26;19999;-75
2024/04/29 01:02:53;;;;;;;2.20;2.10;;;7.40;99.90;;;;;;5449809;26;19998;-75
2024/04/29 01:05:23;;;;;;;6.53;1.83;;;7.40;99.90;;;;;;5420069;26;20009;-75
2024/04/29 01:07:50;;;;;;;5.22;2.38;;;7.30;99.90;;;;;;5451588;26;20035;-75
2024/04/29 01:10:17;;;;;;;2.55;2.35;;;7.40;99.90;;;;;;5451227;26;20071;-75
2024/04/29 01:12:44;;;;;;;2.22;2.13;;;7.60;99.90;;;;;;5449733;26;20035;-75
2024/04/29 01:15:11;;;;;;;2.85;2.63;;;7.30;99.90;;;;;;5450047;26;19994;-75
2024/04/29 01:17:39;;;;;;;3.70;2.35;;;7.20;99.90;;;;;;5451874;26;20007;-75
2024/04/29 01:20:07;;;;;;;3.85;2.25;;;7.20;99.90;;;;;;5449628;26;20062;-75
2024/04/29 01:22:34;;;;;;;4.00;2.63;;;7.20;99.90;;;;;;5449497;26;20516;-75
2024/04/29 01:25:01;;;;;;;4.53;2.20;;;7.10;99.90;;;;;;5450551;26;20010;-75
2024/04/29 01:27:29;;;;;;;5.68;2.42;;;7.30;99.90;;;;;;5449291;26;20067;-75
2024/04/29 01:29:56;;;;;;;3.63;2.25;;;7.10;99.90;;;;;;5449349;26;19995;-75
2024/04/29 01:32:23;;;;;;;3.45;3.15;;;7.00;99.90;;;;;;5450751;26;19995;-75
2024/04/29 01:34:50;;;;;;;3.63;3.05;;;6.90;99.90;;;;;;5451044;26;20505;-75
2024/04/29 01:37:17;;;;;;;3.60;2.47;;;6.90;99.90;;;;;;5450728;26;19999;-75
2024/04/29 01:39:44;;;;;;;3.58;2.67;;;6.90;99.90;;;;;;5449096;26;19999;-75
2024/04/29 01:42:11;;;;;;;2.58;2.38;;;6.80;99.90;;;;;;5450950;26;20076;-75
2024/04/29 01:44:38;;;;;;;3.08;2.55;;;6.80;99.90;;;;;;5448907;26;20515;-75
2024/04/29 01:47:06;;;;;;;3.35;3.00;;;6.80;99.90;;;;;;5449139;26;20075;-75
2024/04/29 01:49:33;;;;;;;5.40;3.50;;;6.70;99.90;;;;;;5448898;26;19998;-75
2024/04/29 01:52:00;;;;;;;3.38;3.05;;;6.70;99.90;;;;;;5450830;26;20011;-75
2024/04/29 01:54:27;;;;;;;4.63;2.53;;;6.60;99.90;;;;;;5450975;26;20006;-75
2024/04/29 01:56:59;;;;;;;3.75;3.00;;;6.70;99.90;;;;;;5449299;26;19995;-75
2024/04/29 01:59:26;;;;;;;3.30;3.00;;;6.60;99.90;;;;;;5418857;26;20006;-75
2024/04/29 02:01:53;;;;;;;3.85;2.92;;;6.60;99.90;;;;;;5449090;26;19999;-75
2024/04/29 02:04:20;;;;;;;4.28;3.15;;;6.50;99.90;;;;;;5448421;26;20424;-75
2024/04/29 02:06:47;;;;;;;3.63;3.33;;;6.50;99.90;;;;;;5450939;26;19995;-75
2024/04/29 02:09:15;;;;;;;3.65;3.33;;;6.50;99.90;;;;;;5449289;26;19995;-75
2024/04/29 02:11:42;;;;;;;3.17;2.92;;;6.40;99.90;;;;;;5448411;26;20010;-75
2024/04/29 02:14:09;;;;;;;4.35;3.13;;;6.40;99.90;;;;;;5450429;26;20027;-75
2024/04/29 02:16:36;;;;;;;3.75;3.08;;;6.30;99.90;;;;;;5450071;26;20010;-75
2024/04/29 02:19:03;;;;;;;4.00;3.67;;;6.30;99.90;;;;;;5450257;26;19999;-75
2024/04/29 02:21:30;;;;;;;4.38;3.15;;;6.30;99.90;;;;;;5448048;26;20446;-75
2024/04/29 02:23:57;;;;;;;3.00;2.60;;;6.40;99.90;;;;;;5450266;26;20037;-75
2024/04/29 02:26:24;;;;;;;3.92;3.05;;;6.40;99.90;;;;;;5449980;26;20016;-75
2024/04/29 02:28:51;;;;;;;3.15;2.85;;;6.60;99.90;;;;;;5450115;26;20010;-75
2024/04/29 02:31:18;;;;;;;3.40;3.10;;;6.50;99.90;;;;;;5418655;26;20108;-75
2024/04/29 02:33:45;;;;;;;3.45;3.00;;;6.60;99.90;;;;;;5450151;26;20007;-75
2024/04/29 02:36:12;;;;;;;4.57;4.28;;;6.70;99.90;;;;;;5450289;26;19995;-75
2024/04/29 02:38:39;;;;;;;2.83;2.63;;;6.70;99.90;;;;;;5450878;26;20019;-75
2024/04/29 02:41:07;;;;;;;5.40;3.45;;;6.80;99.90;;;;;;5422360;26;20013;-75
2024/04/29 02:43:34;;;;;;;5.72;3.92;;;6.70;99.90;;;;;;5451702;26;19995;-75
2024/04/29 02:46:01;;;;;;;3.47;3.17;;;6.60;99.90;;;;;;5453779;26;19995;-75
2024/04/29 02:48:28;;;;;;;3.95;3.20;;;6.60;99.90;;;;;;5451561;26;20428;-75
2024/04/29 02:50:55;;;;;;;7.30;3.97;;;6.60;99.90;;;;;;5453504;26;20075;-75
2024/04/29 02:53:22;;;;;;;5.70;3.58;;;6.60;99.90;;;;;;5453833;26;20011;-75
2024/04/29 02:55:49;;;;;;;3.33;3.03;;;6.50;99.90;;;;;;5451673;26;20371;-75
2024/04/29 02:58:16;;;;;;;3.83;3.53;;;6.50;99.90;;;;;;5453350;26;20450;-75
2024/04/29 03:00:43;;;;;;;3.50;2.88;;;6.60;99.90;;;;;;5445657;26;20075;-75
2024/04/29 03:03:11;;;;;;;3.97;3.60;;;6.60;99.90;;;;;;5476110;26;20068;-75
2024/04/29 03:05:38;;;;;;;4.03;2.85;;;6.60;99.90;;;;;;5413148;26;20007;-74
2024/04/29 03:08:06;;;;;;;5.45;3.58;;;6.60;99.90;;;;;;5417218;26;20000;-75
2024/04/29 03:10:33;;;;;;;7.38;4.38;;;6.60;99.90;;;;;;5445093;26;20000;-75
2024/04/29 03:13:00;;;;;;;5.43;4.65;;;6.60;99.90;;;;;;5417429;26;20528;-75
2024/04/29 03:15:27;;;;;;;3.30;3.00;;;6.60;99.90;;;;;;5445728;26;20068;-75
2024/04/29 03:17:54;;;;;;;3.25;2.95;;;6.60;99.90;;;;;;5417380;26;19995;-75
2024/04/29 03:20:21;;;;;;;4.32;3.92;;;6.50;99.90;;;;;;5386081;26;19999;-75
2024/04/29 03:22:51;;;;;;;5.05;4.55;;;6.40;99.90;;;;;;5415392;26;19995;-75
2024/04/29 03:25:18;;;;;;;4.93;4.47;;;6.40;99.90;;;;;;5415614;26;20049;-75
2024/04/29 03:27:45;;;;;;;4.22;3.83;;;6.30;99.90;;;;;;5416801;26;20007;-75
2024/04/29 03:30:13;;;;;;;3.95;3.55;;;6.30;99.90;;;;;;5444928;26;20006;-74
2024/04/29 03:32:40;;;;;;;5.78;3.90;;;6.30;99.90;;;;;;5417120;26;20363;-75
2024/04/29 03:35:07;;;;;;;10.95;10.25;;;6.20;99.90;;;;;;5416945;26;20000;-75
2024/04/29 03:37:34;;;;;;;6.85;3.85;;;6.20;99.90;;;;;;5416604;26;20004;-75
2024/04/29 03:40:01;;;;;;;5.90;3.95;;;6.10;99.90;;;;;;5415214;26;20000;-75
2024/04/29 03:42:28;;;;;;;6.53;4.32;;;6.10;99.90;;;;;;5416975;26;20000;-75
2024/04/29 03:44:55;;;;;;;5.75;4.25;;;6.10;99.90;;;;;;5444581;26;20465;-75
2024/04/29 03:47:22;;;;;;;6.07;3.80;;;6.10;99.90;;;;;;5415137;26;20010;-75
2024/04/29 03:49:49;;;;;;;4.25;3.22;;;6.20;99.90;;;;;;5414365;26;20080;-75
2024/04/29 03:52:16;;;;;;;5.90;5.30;;;6.30;99.90;;;;;;5445047;26;20041;-75
2024/04/29 03:54:44;;;;;;;5.72;4.25;;;6.50;99.90;;;;;;5415020;26;20379;-75
2024/04/29 03:57:11;;;;;;;6.35;4.00;;;6.70;99.90;;;;;;5416755;26;19996;-75
2024/04/29 03:59:38;;;;;;;5.28;3.72;;;6.90;99.90;;;;;;5416398;26;20010;-75
2024/04/29 04:02:05;;;;;;;5.30;3.95;;;7.00;99.90;;;;;;5474804;26;20006;-75
2024/04/29 04:04:32;;;;;;;4.15;3.75;;;7.10;99.90;;;;;;5414924;26;19995;-75
2024/04/29 04:06:59;;;;;;;7.90;3.97;;;7.10;99.90;;;;;;5416237;26;20000;-75
2024/04/29 04:09:26;;;;;;;4.85;4.03;;;7.10;99.90;;;;;;5416598;26;20014;-75
2024/04/29 04:11:53;;;;;;;3.75;3.15;;;7.20;99.90;;;;;;5416350;26;20003;-75
2024/04/29 04:14:20;;;;;;;4.68;4.03;;;7.10;99.90;;;;;;5414750;26;20014;-75
2024/04/29 04:16:47;;;;;;;5.10;4.00;;;7.10;99.90;;;;;;5416206;26;19999;-75
2024/04/29 04:19:14;;;;;;;5.95;4.75;;;7.10;99.90;;;;;;5416454;26;20321;-75
2024/04/29 04:21:41;;;;;;;4.35;3.95;;;7.10;99.90;;;;;;5414461;26;20437;-75
2024/04/29 04:24:09;;;;;;;6.82;3.90;;;7.20;99.90;;;;;;5444378;26;20398;-75
2024/04/29 04:26:36;;;;;;;5.05;4.30;;;7.30;99.90;;;;;;5414552;26;19999;-75
2024/04/29 04:29:03;;;;;;;7.20;3.30;;;7.40;99.90;;;;;;5414762;26;20012;-75
2024/04/29 04:31:30;;;;;;;5.95;4.32;;;7.50;99.90;;;;;;5444256;26;19996;-75
2024/04/29 04:33:57;;;;;;;6.38;4.40;;;7.50;99.90;;;;;;5415991;26;20039;-75
2024/04/29 04:36:24;;;;;;;6.05;3.85;;;7.60;99.90;;;;;;5414241;26;20068;-75
2024/04/29 04:38:51;;;;;;;3.95;3.65;;;7.70;99.90;;;;;;5474199;26;20010;-75
2024/04/29 04:41:18;;;;;;;5.95;4.80;;;7.70;99.90;;;;;;5385186;26;19995;-75
2024/04/29 04:43:45;;;;;;;5.18;4.30;;;7.80;99.90;;;;;;5474346;26;20005;-75
2024/04/29 04:46:12;;;;;;;4.15;3.05;;;7.80;99.90;;;;;;5474045;26;20000;-75
2024/04/29 04:48:39;;;;;;;5.72;4.32;;;7.90;99.90;;;;;;5474109;26;20014;-75
2024/04/29 04:51:07;;;;;;;4.72;4.15;;;7.90;99.90;;;;;;5474073;26;20233;-75
2024/04/29 04:53:34;;;;;;;6.97;4.63;;;8.00;99.90;;;;;;5443598;26;20352;-75
2024/04/29 04:56:02;;;;;;;4.40;3.63;;;8.00;99.90;;;;;;5413849;26;19999;-75
2024/04/29 04:58:29;;;;;;;3.67;3.03;;;8.10;99.90;;;;;;5413978;26;20010;-75
2024/04/29 05:00:56;;;;;;;5.20;3.50;;;8.10;99.90;;;;;;5412396;26;20044;-75
2024/04/29 05:03:23;;;;;;;4.28;3.88;;;8.20;99.90;;;;;;5490328;26;20501;-75
2024/04/29 05:05:50;;;;;;;4.10;3.70;;;8.30;99.90;;;;;;5444335;26;20529;-75
2024/04/29 05:08:17;;;;;;;7.85;4.68;;;8.30;99.90;;;;;;5451103;26;20001;-75
2024/04/29 05:10:44;;;;;;;7.25;4.95;;;8.40;99.90;;;;;;5451427;26;20010;-75
2024/04/29 05:13:11;;;;;;;6.68;4.90;;;8.40;99.90;;;;;;5451317;26;20010;-75
2024/04/29 05:15:38;;;;;;;5.70;4.97;;;8.50;99.90;;;;;;5449781;26;20002;-75
2024/04/29 05:18:05;;;;;;;5.45;4.90;;;8.50;99.90;;;;;;5449528;26;20459;-76
2024/04/29 05:20:33;;;;;;;5.53;5.00;;;8.50;99.90;;;;;;5449790;26;19995;-75
2024/04/29 05:23:00;;;;;;;7.28;5.22;;;8.60;99.90;;;;;;5451197;26;20005;-76
2024/04/29 05:25:27;;;;;;;6.10;5.05;;;8.60;99.90;;;;;;5449532;26;20071;-76
2024/04/29 05:27:54;;;;;;;5.18;4.57;;;8.70;99.90;;;;;;5450979;26;20010;-76
2024/04/29 05:30:22;;;;;;;5.55;5.00;;;8.80;99.90;;;;;;5449197;26;19999;-75
2024/04/29 05:32:50;;;;;;;4.85;4.43;;;8.80;99.90;;;;;;5450868;26;20011;-76
2024/04/29 05:35:17;;;;;;;11.20;4.78;;;8.90;99.90;;;;;;5449434;26;20010;-75
2024/04/29 05:37:44;;;;;;;6.43;5.43;;;9.00;99.90;;;;;;5449303;26;20030;-76
2024/04/29 05:40:11;;;;;;;4.03;3.67;;;9.30;99.90;;;;;;5419210;26;19999;-75
2024/04/29 05:42:39;;;;;;;7.97;4.72;;;9.50;99.90;;;;;;5450985;26;20067;-76
2024/04/29 05:45:06;;;;;;;5.30;4.50;;;9.70;99.90;;;;;;5419307;26;19999;-76
2024/04/29 05:47:33;;;;;;;4.85;4.38;;;9.80;99.90;;;;;;5449460;26;20011;-76
2024/04/29 05:50:01;;;;;;;6.68;6.13;;;10.00;99.90;;;;;;5451117;26;19994;-76
2024/04/29 05:52:30;;;;;;;4.43;4.03;;;10.00;99.90;;;;;;5449409;26;20006;-76
2024/04/29 05:54:57;;;;;;;5.97;5.38;;;10.30;99.90;;;;;;5448761;26;19995;-76
2024/04/29 05:57:24;;;;;;;5.53;4.78;;;10.90;99.90;;;;;;5448981;26;20040;-76
2024/04/29 05:59:51;;;;;;;5.88;5.13;;;11.60;99.90;;;;;;5450942;26;19995;-76
2024/04/29 06:02:19;;;;;;;3.92;2.85;;;12.30;99.90;;;;;;5451107;26;20010;-76
2024/04/29 06:04:46;;;;;;;5.40;4.90;;;13.00;99.90;;;;;;5450470;26;19999;-76
2024/04/29 06:07:13;;;;;;;5.38;4.78;;;13.50;99.90;;;;;;5448715;26;19998;-76
2024/04/29 06:09:40;;;;;;;4.45;4.10;;;14.00;99.90;;;;;;5416051;26;20082;-76
2024/04/29 06:12:07;;;;;;;2.85;2.65;;;14.40;99.90;;;;;;5451995;26;19998;-77
2024/04/29 06:14:34;;;;;;;4.20;3.88;;;14.70;98.90;;;;;;5421762;26;20034;-76
2024/04/29 06:17:02;;;;;;;3.95;3.65;;;15.00;97.70;;;;;;5452237;26;19999;-76
2024/04/29 06:19:29;;;;;;;6.05;3.78;;;15.30;96.80;;;;;;5454112;26;20007;-77
2024/04/29 06:21:56;;;;;;;3.05;2.80;;;15.60;95.70;;;;;;5452018;26;19998;-76
2024/04/29 06:24:23;;;;;;;3.80;3.50;;;15.90;94.40;;;;;;5453967;26;19999;-76
2024/04/29 06:26:50;;;;;;;5.30;4.75;;;16.10;94.30;;;;;;5452318;26;20022;-76
2024/04/29 06:29:17;;;;;;;3.60;2.97;;;16.40;93.80;;;;;;5453862;26;20026;-76
2024/04/29 06:31:44;;;;;;;5.65;5.25;;;16.70;93.00;;;;;;5452487;26;19995;-76
2024/04/29 06:34:17;;;;;;;4.65;4.25;;;17.10;93.60;;;;;;5453730;26;20462;-77
2024/04/29 06:36:45;;;;;;;4.30;3.97;;;17.40;92.60;;;;;;5454216;26;20436;-77
2024/04/29 06:39:12;;;;;;;3.88;3.58;;;17.70;91.20;;;;;;5453841;26;20006;-77
2024/04/29 06:41:39;;;;;;;2.78;2.58;;;17.90;90.70;;;;;;5422286;26;20002;-76
2024/04/29 06:44:06;;;;;;;4.00;3.60;;;17.90;89.80;;;;;;5451739;26;20304;-76
2024/04/29 06:46:34;;;;;;;4.05;3.75;;;18.00;90.70;;;;;;5453728;26;20051;-77
2024/04/29 06:49:01;;;;;;;4.70;4.38;;;18.20;90.50;;;;;;5452031;26;19999;-76
2024/04/29 06:51:28;;;;;;;6.05;5.05;;;18.50;90.10;;;;;;5453825;26;19999;-77
2024/04/29 06:53:55;;;;;;;3.83;3.50;;;18.70;88.70;;;;;;5451937;26;19999;-77
2024/04/29 06:56:22;;;;;;;2.25;2.05;;;18.90;86.40;;;;;;5451745;26;20451;-76
2024/04/29 06:58:49;;;;;;;3.03;2.80;;;18.90;84.80;;;;;;5422060;26;20023;-76
2024/04/29 07:01:16;;;;;;;2.60;2.40;;;18.70;84.80;;;;;;5452889;26;20448;-76
2024/04/29 07:03:44;;;;;;;3.50;3.20;;;18.80;85.60;;;;;;5421822;26;20007;-76
2024/04/29 07:06:11;;;;;;;3.22;2.92;;;18.80;83.90;;;;;;5421482;26;19999;-76
2024/04/29 07:08:38;;;;;;;3.75;2.88;;;19.00;84.10;;;;;;5453829;26;20223;-77
2024/04/29 07:11:08;;;;;;;3.78;3.47;;;19.20;82.90;;;;;;5422389;26;20006;-77
2024/04/29 07:13:35;;;;;;;4.18;2.95;;;19.50;83.00;;;;;;5451598;26;20011;-77
2024/04/29 07:16:03;;;;;;;4.15;3.25;;;19.80;82.00;;;;;;5451618;26;20005;-77
2024/04/29 07:18:30;;;;;;;3.78;3.42;;;19.90;81.20;;;;;;5451774;26;20002;-77
2024/04/29 07:20:59;;;;;;;5.38;3.33;;;20.00;80.50;;;;;;5421666;26;20009;-77
2024/04/29 07:23:26;;;;;;;3.50;3.20;;;20.10;79.60;;;;;;5450738;26;19999;-77
2024/04/29 07:25:53;;;;;;;3.30;3.08;;;20.00;78.80;;;;;;5421658;26;20066;-77
2024/04/29 07:28:20;;;;;;;3.65;3.35;;;20.00;79.20;;;;;;5452914;26;20076;-77
2024/04/29 07:30:49;;;;;;;2.63;2.40;;;20.10;78.70;;;;;;5451053;26;20039;-77
2024/04/29 07:33:16;;;;;;;2.40;2.20;;;20.20;78.60;;;;;;5450940;26;20048;-77
2024/04/29 07:35:44;;;;;;;4.90;3.38;;;20.30;78.70;;;;;;5421280;26;20003;-77
2024/04/29 07:38:12;;;;;;;4.03;3.72;;;20.40;78.00;;;;;;5450409;26;20037;-77
2024/04/29 07:40:39;;;;;;;3.83;3.53;;;20.70;78.00;;;;;;5421126;26;20006;-77
2024/04/29 07:43:08;;;;;;;4.28;3.97;;;21.30;77.50;;;;;;5450817;26;19999;-77
2024/04/29 07:45:37;;;;;;;2.13;1.92;;;21.70;76.70;;;;;;5453660;26;20007;-77
2024/04/29 07:48:05;;;;;;;4.30;3.88;;;21.90;75.40;;;;;;5422280;26;20078;-77
2024/04/29 07:50:32;;;;;;;4.88;3.65;;;21.90;75.50;;;;;;5451420;26;20132;-77
2024/04/29 07:52:59;;;;;;;2.83;2.30;;;22.10;75.00;;;;;;5451236;26;19998;-77
2024/04/29 07:55:26;;;;;;;3.95;3.42;;;22.30;74.10;;;;;;5451287;26;19995;-77
2024/04/29 07:57:53;;;;;;;3.55;2.78;;;22.20;73.20;;;;;;5421779;26;19995;-77
2024/04/29 08:00:20;;;;;;;5.53;3.20;;;22.20;72.70;;;;;;5416937;26;20075;-77
2024/04/29 08:02:48;;;;;;;8.30;3.22;;;21.90;73.60;;;;;;5452466;26;20036;-77
2024/04/29 08:05:15;;;;;;;3.60;2.90;;;22.00;73.70;;;;;;5450389;26;20014;-77
2024/04/29 08:07:43;;;;;;;3.95;2.95;;;22.10;73.10;;;;;;5452483;26;20014;-77
2024/04/29 08:10:10;;;;;;;3.47;3.17;;;22.10;72.80;;;;;;5450398;26;20002;-77
2024/04/29 08:12:37;;;;;;;2.45;2.25;;;22.10;72.50;;;;;;5385167;26;20014;-77
2024/04/29 08:15:05;;;;;;;3.28;2.53;;;22.40;72.50;;;;;;5434294;26;20009;-77
2024/04/29 08:17:32;;;;;;;2.65;2.45;;;22.40;72.20;;;;;;5449895;26;20463;-77
2024/04/29 08:20:01;;;;;;;3.90;2.67;;;22.60;72.10;;;;;;5450272;26;20075;-77
2024/04/29 08:22:28;;;;;;;2.97;2.42;;;22.60;71.80;;;;;;5450026;26;20015;-77
2024/04/29 08:24:55;;;;;;;5.22;2.10;;;22.70;71.90;;;;;;5452545;26;20044;-77
2024/04/29 08:27:22;;;;;;;3.00;2.50;;;22.80;71.60;;;;;;5451964;26;19998;-77
2024/04/29 08:29:49;;;;;;;2.05;1.95;;;22.90;70.90;;;;;;5376079;26;20043;-77
2024/04/29 08:32:16;;;;;;;3.42;2.47;;;22.90;70.10;;;;;;5350204;26;20000;-77
2024/04/29 08:34:44;;;;;;;2.50;2.30;;;22.70;70.30;;;;;;5372929;26;20034;-77
2024/04/29 08:37:11;;;;;;;2.15;1.80;;;22.70;70.20;;;;;;5377462;26;20416;-77
2024/04/29 08:39:38;;;;;;;3.47;2.28;;;22.60;70.00;;;;;;5380755;26;20216;-77
2024/04/29 08:42:09;;;;;;;2.10;1.90;;;22.50;69.00;;;;;;5378799;26;20039;-77
2024/04/29 08:44:40;;;;;;;2.20;2.00;;;22.10;69.90;;;;;;5378949;26;20011;-77
2024/04/29 08:47:08;;;;;;;1.80;1.70;;;21.90;70.40;;;;;;5378912;26;20000;-77
2024/04/29 08:49:36;;;;;;;2.00;1.80;;;22.10;69.60;;;;;;5349541;26;20433;-77
2024/04/29 08:52:03;;;;;;;1.65;1.52;;;21.90;70.10;;;;;;5374259;26;20000;-76
2024/04/29 08:54:30;;;;;;;3.22;1.52;;;22.00;70.40;;;;;;5345561;26;20013;-77
2024/04/29 08:56:58;;;;;;;2.30;2.00;;;21.90;69.60;;;;;;5344166;26;20012;-76
2024/04/29 08:59:26;;;;;;;2.22;1.75;;;21.60;70.30;;;;;;5343754;26;20052;-77
2024/04/29 09:01:54;;;;;;;1.50;1.30;;;21.80;70.00;;;;;;5313771;26;20074;-77
2024/04/29 09:04:22;;;;;;;2.13;1.92;;;21.90;69.20;;;;;;5341871;26;20346;-77
2024/04/29 09:06:50;;;;;;;1.80;1.70;;;21.80;68.80;;;;;;5342192;26;20008;-76
2024/04/29 09:09:17;;;;;;;1.98;1.58;;;21.70;69.10;;;;;;5343924;26;20048;-76
2024/04/29 09:11:45;;;;;;;2.10;1.85;;;21.70;69.20;;;;;;5343252;26;20450;-77
2024/04/29 09:14:12;;;;;;;1.90;1.80;;;21.80;69.30;;;;;;5345439;26;20008;-76
2024/04/29 09:16:39;;;;;;;1.77;1.67;;;21.80;69.20;;;;;;5343653;26;20011;-76
2024/04/29 09:19:08;;;;;;;1.90;1.80;;;21.90;68.80;;;;;;5343532;26;20109;-76
2024/04/29 09:21:35;;;;;;;5.28;2.63;;;21.90;68.80;;;;;;5342964;26;20346;-76
2024/04/29 09:24:03;;;;;;;1.83;1.60;;;21.90;69.40;;;;;;5345090;26;20013;-76
2024/04/29 09:26:33;;;;;;;2.50;2.10;;;21.80;69.60;;;;;;5343080;26;20082;-76
2024/04/29 09:29:09;;;;;;;2.05;1.63;;;21.60;69.70;;;;;;5344959;26;20074;-76
2024/04/29 09:31:46;;;;;;;1.67;1.58;;;21.70;69.30;;;;;;5344667;26;20001;-76
2024/04/29 09:34:17;;;;;;;1.65;1.08;;;21.60;68.70;;;;;;5343337;26;20001;-76
2024/04/29 09:36:45;;;;;;;1.55;1.23;;;21.70;68.30;;;;;;5345019;26;20335;-76
2024/04/29 09:39:12;;;;;;;0.88;0.88;;;21.90;68.80;;;;;;5344662;26;20004;-75
2024/04/29 09:41:45;;;;;;;1.20;1.10;;;21.70;68.60;;;;;;5313962;26;20078;-75
2024/04/29 09:44:48;;;;;;;1.75;1.48;;;21.60;69.70;;;;;;5343355;26;20012;-76
2024/04/29 09:47:17;;;;;;;1.83;1.48;;;21.90;68.80;;;;;;5288936;26;20468;-75
2024/04/29 09:49:51;;;;;;;2.42;2.22;;;21.80;68.80;;;;;;5348075;26;20005;-75
2024/04/29 09:52:19;;;;;;;3.15;1.42;;;21.60;68.70;;;;;;5347893;26;20012;-75
2024/04/29 09:54:47;;;;;;;2.55;1.60;;;21.70;69.40;;;;;;5367803;26;20004;-76
2024/04/29 09:57:14;;;;;;;1.60;1.50;;;21.80;68.70;;;;;;5411790;26;20069;-76
2024/04/29 09:59:43;;;;;;;1.33;1.02;;;21.80;67.80;;;;;;5381705;26;20070;-76
2024/04/29 10:02:11;;;;;;;1.95;1.63;;;21.60;68.40;;;;;;5381742;26;20004;-76
2024/04/29 10:04:40;;;;;;;2.30;2.08;;;21.60;69.10;;;;;;5381546;26;20007;-76
2024/04/29 10:07:08;;;;;;;1.88;1.70;;;21.90;68.50;;;;;;5352863;26;20013;-76
2024/04/29 10:09:47;;;;;;;3.60;1.63;;;22.10;68.80;;;;;;5381601;26;20028;-76
2024/04/29 10:12:14;;;;;;;1.73;1.63;;;22.50;67.10;;;;;;5383782;26;20000;-76
2024/04/29 10:14:44;;;;;;;2.75;1.60;;;22.70;68.00;;;;;;5383253;26;20077;-76
2024/04/29 10:17:13;;;;;;;1.83;0.90;;;22.80;67.90;;;;;;5381819;26;20456;-76
2024/04/29 10:19:50;;;;;;;1.60;1.42;;;23.10;67.00;;;;;;5383119;26;20018;-76
2024/04/29 10:22:43;;;;;;;3.50;1.77;;;23.10;66.20;;;;;;5383314;26;20011;-76
2024/04/29 10:25:11;;;;;;;2.13;1.77;;;23.10;65.80;;;;;;5381779;26;20000;-76
2024/04/29 10:27:49;;;;;;;2.80;2.00;;;23.00;66.70;;;;;;5383203;26;20004;-76
2024/04/29 10:30:26;;;;;;;1.52;1.40;;;23.30;65.80;;;;;;5383457;26;20016;-76
2024/04/29 10:32:55;;;;;;;2.42;2.10;;;23.50;65.70;;;;;;5383167;26;20012;-76
2024/04/29 10:35:25;;;;;;;3.00;2.05;;;23.50;65.30;;;;;;5383353;26;20035;-77
2024/04/29 10:37:54;;;;;;;1.83;1.50;;;23.50;64.40;;;;;;5383676;26;20471;-76
2024/04/29 10:40:26;;;;;;;2.22;1.98;;;23.40;64.80;;;;;;5352085;26;20337;-77
2024/04/29 10:42:54;;;;;;;1.38;1.27;;;23.40;64.90;;;;;;5382835;26;20354;-77
2024/04/29 10:45:21;;;;;;;1.77;1.30;;;23.60;65.30;;;;;;5383018;26;20010;-76
2024/04/29 10:47:49;;;;;;;3.50;1.55;;;24.10;64.80;;;;;;5381057;26;20000;-76
2024/04/29 10:50:17;;;;;;;1.58;1.48;;;24.40;65.00;;;;;;5410480;26;20387;-77
2024/04/29 10:52:44;;;;;;;1.30;1.00;;;24.60;62.80;;;;;;5382655;26;20019;-77
2024/04/29 10:55:16;;;;;;;1.02;0.93;;;24.30;62.80;;;;;;5381071;26;20026;-76
2024/04/29 10:57:44;;;;;;;1.63;1.25;;;24.20;62.70;;;;;;5379674;26;20032;-77
2024/04/29 11:00:13;;;;;;;0.95;0.82;;;24.00;63.20;;;;;;5381140;26;20298;-76
2024/04/29 11:02:41;;;;;;;0.80;0.80;;;23.80;63.60;;;;;;5380830;26;20388;-76
2024/04/29 11:05:10;;;;;;;0.82;0.82;;;23.80;63.90;;;;;;5383015;26;20008;-76
2024/04/29 11:07:39;;;;;;;1.10;1.00;;;23.80;64.40;;;;;;5382843;26;19996;-77
2024/04/29 11:10:10;;;;;;;1.10;0.88;;;24.10;64.20;;;;;;5410445;26;20074;-76
2024/04/29 11:12:39;;;;;;;1.13;1.00;;;24.30;63.10;;;;;;5382742;26;20020;-77
2024/04/29 11:15:07;;;;;;;0.82;0.82;;;24.20;63.00;;;;;;5383034;26;20000;-76
2024/04/29 11:17:35;;;;;;;1.15;0.90;;;23.80;63.20;;;;;;5409787;26;20442;-77
2024/04/29 11:20:02;;;;;;;2.65;0.90;;;23.60;63.70;;;;;;5382479;26;20000;-76
2024/04/29 11:22:34;;;;;;;0.85;0.63;;;23.30;63.00;;;;;;5409898;26;20008;-76
2024/04/29 11:25:03;;;;;;;0.93;0.82;;;23.30;63.40;;;;;;5382521;26;20012;-77
2024/04/29 11:27:30;;;;;;;1.17;1.08;;;23.40;63.00;;;;;;5382327;26;20032;-76
2024/04/29 11:29:57;;;;;;;1.25;1.05;;;23.70;62.30;;;;;;5380287;26;20045;-76
2024/04/29 11:32:24;;;;;;;0.70;0.70;;;23.90;62.20;;;;;;5380735;26;21034;-76
2024/04/29 11:34:51;;;;;;;2.20;1.08;;;24.00;62.60;;;;;;5381985;26;20001;-76
2024/04/29 11:37:18;;;;;;;1.13;1.02;;;24.20;62.30;;;;;;5382357;26;20037;-76
2024/04/29 11:39:46;;;;;;;0.75;0.75;;;24.30;61.70;;;;;;5380123;26;20000;-76
2024/04/29 11:42:18;;;;;;;2.08;0.98;;;24.40;61.90;;;;;;5351520;26;19996;-76
2024/04/29 11:44:45;;;;;;;1.50;1.02;;;24.50;61.80;;;;;;5380579;26;20387;-76
2024/04/29 11:47:13;;;;;;;1.20;1.10;;;24.40;62.00;;;;;;5382222;26;19996;-76
2024/04/29 11:49:41;;;;;;;1.13;1.00;;;24.30;61.90;;;;;;5382025;26;20079;-76
2024/04/29 11:52:08;;;;;;;3.85;1.10;;;24.50;62.20;;;;;;5382145;26;20072;-76
2024/04/29 11:54:38;;;;;;;1.15;0.98;;;24.60;62.40;;;;;;5374629;26;20013;-77
2024/04/29 11:57:05;;;;;;;1.20;1.00;;;24.70;61.90;;;;;;5347922;26;20000;-77
2024/04/29 11:59:35;;;;;;;1.23;0.95;;;25.00;62.00;;;;;;5345100;26;20361;-76
2024/04/29 12:02:02;;;;;;;1.33;0.90;;;24.90;61.50;;;;;;5369379;26;20001;-76
2024/04/29 12:04:29;;;;;;;1.38;1.00;;;24.60;61.90;;;;;;5372944;26;20008;-76
2024/04/29 12:06:56;;;;;;;1.05;0.85;;;24.20;62.50;;;;;;5350686;26;20014;-76
2024/04/29 12:09:23;;;;;;;1.55;1.02;;;23.80;62.10;;;;;;5381072;26;20000;-76
2024/04/29 12:11:51;;;;;;;1.58;1.05;;;23.30;63.20;;;;;;5379742;26;20014;-76
2024/04/29 12:14:18;;;;;;;1.42;1.27;;;23.20;63.70;;;;;;5351180;26;20395;-76
2024/04/29 12:16:45;;;;;;;1.17;1.08;;;22.80;64.30;;;;;;5381358;26;20000;-76
2024/04/29 12:19:12;;;;;;;1.83;1.23;;;22.60;65.10;;;;;;5379980;26;20073;-76
2024/04/29 12:21:39;;;;;;;1.70;1.25;;;22.50;65.20;;;;;;5380472;26;20042;-76
2024/04/29 12:24:06;;;;;;;0.98;0.82;;;22.50;64.50;;;;;;5380421;26;20479;-77
2024/04/29 12:26:34;;;;;;;1.52;1.10;;;22.70;65.10;;;;;;5382043;26;20007;-76
2024/04/29 12:29:01;;;;;;;1.30;0.40;;;23.00;64.60;;;;;;5381555;26;20373;-76
2024/04/29 12:31:28;;;;;;;1.65;0.70;;;23.00;64.60;;;;;;5381729;26;20008;-76
2024/04/29 12:33:57;;;;;;;2.53;0.93;;;22.80;64.20;;;;;;5379976;26;20008;-77
2024/04/29 12:36:24;;;;;;;0.63;0.63;;;22.40;64.70;;;;;;5351104;26;20011;-76
2024/04/29 12:38:52;;;;;;;1.92;0.95;;;22.20;64.70;;;;;;5381109;26;20073;-76
2024/04/29 12:41:19;;;;;;;1.10;1.00;;;22.30;65.30;;;;;;5379638;26;20023;-77
2024/04/29 12:43:47;;;;;;;2.42;1.20;;;22.80;64.80;;;;;;5381061;26;20010;-77
2024/04/29 12:46:14;;;;;;;1.50;0.82;;;23.30;63.50;;;;;;5379597;26;20079;-77
2024/04/29 12:48:47;;;;;;;1.20;0.77;;;23.50;62.70;;;;;;5379639;26;20011;-77
2024/04/29 12:51:15;;;;;;;1.48;1.17;;;23.50;62.40;;;;;;5379761;26;20341;-77
2024/04/29 12:53:43;;;;;;;1.10;0.55;;;23.80;62.30;;;;;;5381137;26;20406;-77